createdAt,value
2022-10-21T00:02:11.646Z,958.53
2022-10-21T00:07:44.680Z,958.51
2022-10-21T00:13:16.431Z,958.49
2022-10-21T00:18:48.091Z,958.47
2022-10-21T00:24:19.841Z,958.45
2022-10-21T00:29:51.615Z,958.45
2022-10-21T00:35:23.411Z,958.49
2022-10-21T00:40:55.096Z,958.47
2022-10-21T00:46:26.836Z,958.45
2022-10-21T00:51:58.947Z,958.43
2022-10-21T00:57:30.673Z,958.47
2022-10-21T01:03:02.607Z,958.43
2022-10-21T01:08:34.535Z,958.47
2022-10-21T01:14:06.338Z,958.47
2022-10-21T01:19:38.620Z,958.45
2022-10-21T01:25:10.524Z,958.35
2022-10-21T01:30:42.385Z,958.31
2022-10-21T01:36:14.153Z,958.25
2022-10-21T01:41:45.897Z,958.18
2022-10-21T01:47:17.732Z,958.10
2022-10-21T01:52:49.449Z,958.04
2022-10-21T01:58:21.418Z,957.96
2022-10-21T02:03:53.360Z,957.90
2022-10-21T02:09:25.626Z,957.86
2022-10-21T02:14:57.547Z,957.84
2022-10-21T02:20:29.431Z,957.80
2022-10-21T02:26:01.513Z,957.74
2022-10-21T02:31:33.783Z,957.71
2022-10-21T02:37:05.699Z,957.63
2022-10-21T02:42:37.699Z,957.59
2022-10-21T02:48:09.317Z,957.55
2022-10-21T02:53:41.168Z,957.53
2022-10-21T02:59:13.042Z,957.47
2022-10-21T03:04:44.713Z,957.39
2022-10-21T03:10:16.615Z,957.29
2022-10-21T03:15:48.705Z,957.17
2022-10-21T03:21:20.997Z,957.14
2022-10-21T03:26:53.410Z,957.14
2022-10-21T03:32:25.667Z,957.14
2022-10-21T03:43:29.391Z,957.14
2022-10-21T03:49:04.225Z,957.16
2022-10-21T03:54:33.575Z,957.16
2022-10-21T04:00:07.777Z,957.16
2022-10-21T04:05:39.725Z,957.08
2022-10-21T04:11:12.268Z,956.94
2022-10-21T04:16:46.106Z,956.82
2022-10-21T04:22:16.754Z,956.76
2022-10-21T04:27:48.990Z,956.65
2022-10-21T04:33:22.643Z,956.47
2022-10-21T04:38:54.886Z,956.37
2022-10-21T04:44:27.024Z,956.29
2022-10-21T04:49:59.285Z,956.21
2022-10-21T04:55:31.033Z,956.12
2022-10-21T05:01:03.108Z,956.06
2022-10-21T05:06:34.998Z,956.00
2022-10-21T05:12:06.804Z,955.94
2022-10-21T05:17:38.872Z,955.92
2022-10-21T05:23:10.583Z,955.86
2022-10-21T05:34:12.437Z,955.80
2022-10-21T05:39:44.163Z,955.80
2022-10-21T05:45:15.782Z,955.78
2022-10-21T05:50:47.475Z,955.82
2022-10-21T05:56:19.293Z,955.84
2022-10-21T06:07:20.809Z,955.80
2022-10-21T06:12:52.660Z,955.74
2022-10-21T06:18:24.467Z,955.74
2022-10-21T06:23:56.614Z,955.76
2022-10-21T06:29:28.335Z,955.78
2022-10-21T06:35:00.215Z,955.78
2022-10-21T06:40:31.929Z,955.78
2022-10-21T06:46:03.713Z,955.82
2022-10-21T06:51:35.859Z,955.78
2022-10-21T06:57:07.926Z,955.70
2022-10-21T07:02:40.561Z,955.66
2022-10-21T07:08:12.798Z,955.62
2022-10-21T07:13:43.664Z,955.57
2022-10-21T07:19:15.559Z,955.49
2022-10-21T07:24:47.729Z,955.45
2022-10-21T07:30:19.617Z,955.41
2022-10-21T07:35:51.427Z,955.33
2022-10-21T07:41:23.221Z,955.31
2022-10-21T07:46:54.977Z,955.27
2022-10-21T07:52:26.904Z,955.25
2022-10-21T07:57:58.883Z,955.19
2022-10-21T08:09:00.908Z,955.19
2022-10-21T08:14:32.657Z,955.19
2022-10-21T08:20:04.517Z,955.17
2022-10-21T08:31:06.875Z,955.10
2022-10-21T08:36:39.239Z,955.06
2022-10-21T08:42:11.453Z,955.08
2022-10-21T08:47:43.762Z,955.12
2022-10-21T08:53:15.911Z,955.14
2022-10-21T08:58:48.009Z,955.19
2022-10-21T09:04:20.189Z,955.23
2022-10-21T09:09:52.029Z,955.23
2022-10-21T09:15:24.302Z,955.27
2022-10-21T09:20:58.490Z,955.33
2022-10-21T09:26:30.308Z,955.39
2022-10-21T09:32:02.548Z,955.47
2022-10-21T09:37:35.430Z,955.55
2022-10-21T09:43:04.757Z,955.70
2022-10-21T09:48:45.241Z,956.00
2022-10-21T09:54:08.790Z,956.35
2022-10-21T10:05:12.704Z,956.80
2022-10-21T10:10:44.619Z,956.86
2022-10-21T10:16:16.826Z,956.84
2022-10-21T10:32:53.118Z,957.00
2022-10-21T10:38:24.980Z,957.00
2022-10-21T10:43:56.907Z,957.02
2022-10-21T10:49:28.698Z,957.00
2022-10-21T10:55:02.857Z,956.90
2022-10-21T11:00:34.536Z,956.88
2022-10-21T11:06:06.240Z,956.98
2022-10-21T11:11:38.052Z,957.08
2022-10-21T11:17:10.282Z,957.08
2022-10-21T11:22:42.236Z,957.14
2022-10-21T11:28:13.741Z,957.31
2022-10-21T11:33:45.505Z,957.43
2022-10-21T11:35:58.019Z,957.57
2022-10-21T11:41:28.636Z,957.57
2022-10-21T11:52:32.375Z,957.51
2022-10-21T11:58:06.063Z,957.53
2022-10-21T12:09:22.464Z,957.41
2022-10-21T12:14:54.763Z,957.39
2022-10-21T12:20:26.751Z,957.37
2022-10-21T12:25:58.254Z,957.39
2022-10-21T12:31:30.044Z,957.39
2022-10-21T12:37:02.230Z,957.41
2022-10-21T12:48:05.458Z,957.43
2022-10-21T12:55:57.958Z,957.39
2022-10-21T13:01:29.806Z,957.39
2022-10-21T13:07:01.602Z,957.37
2022-10-21T13:23:38.904Z,957.33
2022-10-21T13:29:12.662Z,957.35
2022-10-21T13:45:49.486Z,957.41
2022-10-21T13:51:21.212Z,957.45
2022-10-21T13:56:52.661Z,957.43
2022-10-21T14:02:24.379Z,957.47
2022-10-21T14:15:52.787Z,957.41
2022-10-21T14:21:24.638Z,957.39
2022-10-21T14:26:56.313Z,957.33
2022-10-21T14:37:57.571Z,957.25
2022-10-21T14:43:29.381Z,957.25
2022-10-21T14:49:00.941Z,957.25
2022-10-21T14:54:32.482Z,957.25
2022-10-21T15:00:03.871Z,957.25
2022-10-21T15:05:35.851Z,957.25
2022-10-21T15:11:07.651Z,957.29
2022-10-21T15:16:39.257Z,957.33
2022-10-21T15:22:10.687Z,957.33
2022-10-21T15:27:42.931Z,957.29
2022-10-21T15:33:14.586Z,957.29
2022-10-21T15:38:46.251Z,957.25
2022-10-21T15:44:18.372Z,957.23
2022-10-21T15:49:49.892Z,957.23
2022-10-21T15:55:21.709Z,957.25
2022-10-21T16:00:53.582Z,957.25
2022-10-21T16:06:25.252Z,957.21
2022-10-21T16:12:01.017Z,957.21
2022-10-21T16:17:28.848Z,957.21
2022-10-21T16:23:03.039Z,957.23
2022-10-21T16:28:32.449Z,957.23
2022-10-21T16:34:03.810Z,957.25
2022-10-21T16:39:35.298Z,957.29
2022-10-21T16:45:07.006Z,957.33
2022-10-21T16:50:38.923Z,957.33
2022-10-21T16:56:10.633Z,957.27
2022-10-21T17:01:42.337Z,957.29
2022-10-21T17:07:13.802Z,957.29
2022-10-21T17:12:45.691Z,957.31
2022-10-21T17:18:17.313Z,957.35
2022-10-21T17:23:49.116Z,957.33
2022-10-21T17:29:20.834Z,957.29
2022-10-21T17:34:52.292Z,957.27
2022-10-21T17:40:24.149Z,957.23
2022-10-21T17:45:56.223Z,957.17
2022-10-21T17:51:28.805Z,957.12
2022-10-21T17:53:51.333Z,957.06
2022-10-21T18:12:53.877Z,957.19
2022-10-21T18:18:25.657Z,957.21
2022-10-21T18:29:32.428Z,957.17
2022-10-21T18:35:03.953Z,957.12
2022-10-21T18:40:35.780Z,957.10
2022-10-21T18:46:07.807Z,957.06
2022-10-21T19:02:48.482Z,956.84
2022-10-21T19:08:19.968Z,956.84
2022-10-21T19:13:51.734Z,956.82
2022-10-21T19:19:23.533Z,956.80
2022-10-21T19:24:55.340Z,956.78
2022-10-21T19:30:27.073Z,956.76
2022-10-21T19:35:59.146Z,956.76
2022-10-21T19:41:30.786Z,956.76
2022-10-21T19:47:02.413Z,956.78
2022-10-21T19:52:34.107Z,956.80
2022-10-21T19:58:05.764Z,956.82
2022-10-21T20:03:37.442Z,956.82
2022-10-21T20:09:09.093Z,956.86
2022-10-21T20:14:40.925Z,956.88
2022-10-21T20:25:44.409Z,956.41
2022-10-21T20:31:16.189Z,956.35
2022-10-21T20:36:48.335Z,956.45
2022-10-21T20:42:20.166Z,956.57
2022-10-21T20:47:52.001Z,956.57
2022-10-21T20:53:24.473Z,956.45
2022-10-21T20:58:57.164Z,956.43
2022-10-21T21:04:28.570Z,956.39
2022-10-21T21:10:03.050Z,956.33
2022-10-21T21:15:32.168Z,956.37
2022-10-21T21:21:04.040Z,956.35
2022-10-21T21:26:35.808Z,956.41
2022-10-21T21:32:07.536Z,956.41
2022-10-21T21:43:11.202Z,956.43
2022-10-21T21:48:46.874Z,956.45
2022-10-21T21:54:17.208Z,956.55
2022-10-21T21:59:49.063Z,956.57
2022-10-21T22:05:23.585Z,956.67
2022-10-21T22:10:52.568Z,956.72
2022-10-21T22:16:24.427Z,956.80
2022-10-21T22:21:56.112Z,956.86
2022-10-21T22:27:27.952Z,956.90
2022-10-21T22:32:59.847Z,956.88
2022-10-21T22:38:31.456Z,956.86
2022-10-21T22:44:03.241Z,956.84
2022-10-21T22:49:36.872Z,956.74
2022-10-21T22:55:08.641Z,956.67
2022-10-21T23:00:40.728Z,956.63
2022-10-21T23:06:12.279Z,956.61
2022-10-21T23:11:44.104Z,956.59
2022-10-21T23:17:15.945Z,956.45
2022-10-21T23:22:47.673Z,956.43
2022-10-21T23:33:51.009Z,956.55
2022-10-21T23:39:22.756Z,956.59
2022-10-21T23:44:54.512Z,956.61
2022-10-21T23:50:26.034Z,956.59
